Time;durP1;ratioP1;P1;durP2;ratioP2;P2;SDS_P1;SDS_P2;PMS_P1;PMS_P2;Temp;Humidity;BMP_temperature;BMP_pressure;BME280_temperature;BME280_humidity;BME280_pressure;Samples;Min_cycle;Max_cycle;Signal;HPM_P1;HPM_P2
2022/12/16 00:00:14;;;;;;;71.60;35.30;;;;;;;-4.36;82.02;100378.36;103209;1326;37211;-74
2022/12/16 00:03:08;;;;;;;73.10;36.90;;;;;;;-4.33;81.89;100368.05;103202;1326;37377;-74
2022/12/16 00:05:42;;;;;;;74.40;37.50;;;;;;;-4.34;81.75;100365.81;103179;1328;36207;-75
2022/12/16 00:08:16;;;;;;;77.40;37.70;;;;;;;-4.34;81.66;100361.38;103247;1325;37109;-74
2022/12/16 00:10:53;;;;;;;79.80;36.90;;;;;;;-4.32;81.75;100358.70;103184;1326;36273;-74
2022/12/16 00:13:27;;;;;;;75.20;37.30;;;;;;;-4.27;81.82;100360.52;103212;1328;37241;-74
2022/12/16 00:16:03;;;;;;;69.20;36.00;;;;;;;-4.22;81.91;100360.62;103187;1328;37158;-75
2022/12/16 00:18:37;;;;;;;68.20;36.00;;;;;;;-4.20;81.74;100361.66;103186;1326;37275;-74
2022/12/16 00:21:11;;;;;;;71.50;36.20;;;;;;;-4.20;81.81;100370.20;103196;1328;36474;-75
2022/12/16 00:23:45;;;;;;;64.10;34.10;;;;;;;-4.17;81.72;100374.36;103203;1326;36874;-73
2022/12/16 00:26:20;;;;;;;64.00;33.60;;;;;;;-4.15;81.71;100379.85;103177;1327;36318;-73
2022/12/16 00:28:54;;;;;;;65.50;33.40;;;;;;;-4.11;81.75;100378.21;103197;1327;37126;-73
2022/12/16 00:31:27;;;;;;;61.90;33.00;;;;;;;-4.09;81.68;100368.89;103179;1328;37311;-74
2022/12/16 00:34:01;;;;;;;60.90;33.50;;;;;;;-4.04;81.76;100366.27;103303;1323;37285;-73
2022/12/16 00:36:36;;;;;;;59.90;31.60;;;;;;;-4.02;81.50;100367.85;103156;1326;37229;-73
2022/12/16 00:39:10;;;;;;;63.00;30.80;;;;;;;-4.05;81.04;100370.17;103194;1326;37832;-75
2022/12/16 00:41:44;;;;;;;53.10;28.50;;;;;;;-4.09;80.81;100371.79;103376;1323;37195;-74
2022/12/16 00:44:17;;;;;;;55.80;30.80;;;;;;;-4.11;80.58;100375.84;103206;1326;37512;-75
2022/12/16 00:46:51;;;;;;;61.20;31.90;;;;;;;-4.10;81.05;100376.02;103183;1328;37207;-75
2022/12/16 00:49:25;;;;;;;60.30;31.60;;;;;;;-4.07;81.07;100377.63;103194;1328;37126;-73
2022/12/16 00:51:59;;;;;;;62.90;31.00;;;;;;;-4.08;80.88;100380.67;103239;1327;37258;-74
2022/12/16 00:54:34;;;;;;;60.00;30.20;;;;;;;-4.09;80.71;100376.39;103253;1326;37154;-73
2022/12/16 00:57:09;;;;;;;52.10;27.90;;;;;;;-4.10;80.63;100381.14;103227;1326;37248;-73
2022/12/16 00:59:43;;;;;;;56.80;29.10;;;;;;;-4.08;80.79;100378.13;103268;1327;37312;-75
2022/12/16 01:02:17;;;;;;;62.10;31.20;;;;;;;-4.06;80.60;100378.65;103209;1325;36292;-75
2022/12/16 01:04:52;;;;;;;62.30;32.40;;;;;;;-4.08;80.61;100376.92;103201;1327;37116;-73
2022/12/16 01:07:26;;;;;;;63.60;31.60;;;;;;;-4.09;80.61;100373.31;103176;1326;37155;-73
2022/12/16 01:10:00;;;;;;;65.30;32.40;;;;;;;-4.12;80.53;100373.45;103206;1326;37450;-74
2022/12/16 01:12:34;;;;;;;59.60;31.00;;;;;;;-4.11;80.68;100380.27;103243;1327;36944;-73
2022/12/16 01:15:11;;;;;;;58.60;30.10;;;;;;;-4.07;80.85;100381.38;103190;1328;37381;-75
2022/12/16 01:17:46;;;;;;;60.50;30.30;;;;;;;-4.04;80.80;100388.23;103190;1326;36158;-73
2022/12/16 01:20:20;;;;;;;65.00;31.60;;;;;;;-4.04;80.63;100388.07;103195;1326;37291;-73
2022/12/16 01:22:54;;;;;;;57.40;31.10;;;;;;;-4.07;80.42;100392.28;103197;1328;37378;-73
2022/12/16 01:25:28;;;;;;;60.90;30.90;;;;;;;-4.08;80.55;100388.67;103148;1326;37380;-73
2022/12/16 01:28:01;;;;;;;60.80;32.10;;;;;;;-4.08;80.52;100381.02;103179;1328;37158;-73
2022/12/16 01:30:36;;;;;;;61.60;33.10;;;;;;;-4.06;80.76;100382.08;103177;1326;37579;-73
2022/12/16 01:33:10;;;;;;;63.70;33.30;;;;;;;-3.99;81.08;100378.32;103191;1327;37193;-73
2022/12/16 01:35:44;;;;;;;62.50;32.80;;;;;;;-3.95;80.78;100374.81;103141;1326;37125;-75
2022/12/16 01:38:18;;;;;;;63.80;32.20;;;;;;;-3.95;80.89;100371.94;103341;1326;37106;-74
2022/12/16 01:40:52;;;;;;;62.80;32.40;;;;;;;-3.96;80.65;100365.08;103164;1326;37118;-75
2022/12/16 01:43:28;;;;;;;56.90;30.50;;;;;;;-3.95;80.49;100364.23;103183;1328;36818;-74
2022/12/16 01:46:05;;;;;;;62.10;32.50;;;;;;;-3.96;80.27;100351.63;103238;1324;37343;-75
2022/12/16 01:48:44;;;;;;;61.60;32.40;;;;;;;-3.96;80.49;100351.45;103271;1327;37227;-74
2022/12/16 01:51:21;;;;;;;68.80;35.90;;;;;;;-3.94;80.33;100346.55;103226;1328;37226;-73
2022/12/16 01:53:58;;;;;;;58.00;29.90;;;;;;;-3.94;80.33;100349.27;103290;1326;37270;-75
2022/12/16 01:56:33;;;;;;;63.70;30.50;;;;;;;-3.99;80.13;100339.46;103111;1326;175099;-75
2022/12/16 01:59:07;;;;;;;64.50;32.10;;;;;;;-4.05;79.88;100320.60;103216;1326;36552;-75
2022/12/16 02:01:41;;;;;;;64.50;31.50;;;;;;;-4.08;80.03;100324.13;103196;1328;37315;-75
2022/12/16 02:04:15;;;;;;;60.50;32.40;;;;;;;-4.05;80.28;100340.35;103206;1326;37241;-74
2022/12/16 02:06:49;;;;;;;65.10;33.40;;;;;;;-4.04;80.11;100337.15;103168;1326;37408;-75
2022/12/16 02:09:23;;;;;;;66.40;33.70;;;;;;;-4.10;79.88;100336.67;103182;1328;37294;-76
2022/12/16 02:12:19;;;;;;;60.90;31.00;;;;;;;-4.13;80.03;100326.40;103195;1326;37153;-76
2022/12/16 02:15:27;;;;;;;58.50;30.10;;;;;;;-4.11;80.15;100326.95;103216;1327;37324;-73
2022/12/16 02:18:06;;;;;;;63.20;32.90;;;;;;;-4.12;79.87;100331.36;103174;1328;37269;-73
2022/12/16 02:21:36;;;;;;;64.50;31.60;;;;;;;-4.13;80.10;100330.15;103238;1328;37225;-75
2022/12/16 02:24:44;;;;;;;65.50;32.50;;;;;;;-4.18;80.07;100325.29;103052;1328;36214;-75
2022/12/16 02:28:01;;;;;;;65.40;31.30;;;;;;;-4.19;80.17;100325.09;103196;1328;37228;-76
2022/12/16 02:31:01;;;;;;;63.40;30.90;;;;;;;-4.19;80.25;100328.34;103195;1326;37217;-74
2022/12/16 02:34:17;;;;;;;58.60;29.10;;;;;;;-4.13;80.26;100321.97;103185;1326;38415;-74
2022/12/16 02:37:01;;;;;;;64.10;30.50;;;;;;;-4.22;79.70;100315.99;102598;1332;175468;-75
2022/12/16 02:39:39;;;;;;;60.70;30.80;;;;;;;-4.23;80.05;100316.83;102837;1333;37269;-75
2022/12/16 02:42:16;;;;;;;62.40;31.40;;;;;;;-4.25;80.02;100307.94;103085;1326;37440;-75
2022/12/16 02:44:55;;;;;;;63.50;30.90;;;;;;;-4.30;79.98;100304.77;103217;1327;37126;-75
2022/12/16 02:47:32;;;;;;;60.70;30.90;;;;;;;-4.31;80.08;100301.48;103209;1326;37221;-74
2022/12/16 02:50:12;;;;;;;59.90;31.70;;;;;;;-4.31;80.05;100307.97;103165;1328;36251;-73
2022/12/16 02:52:49;;;;;;;61.10;32.00;;;;;;;-4.30;80.14;100309.52;103240;1323;36748;-73
2022/12/16 02:55:25;;;;;;;64.10;32.30;;;;;;;-4.25;80.35;100303.30;103240;1325;37223;-75
2022/12/16 02:58:12;;;;;;;64.90;33.20;;;;;;;-4.24;80.33;100299.25;103191;1326;37024;-74
2022/12/16 03:00:53;;;;;;;66.30;31.60;;;;;;;-4.22;80.42;100296.08;103219;1326;36437;-75
2022/12/16 03:03:29;;;;;;;59.30;30.00;;;;;;;-4.22;80.21;100294.38;103254;1326;37229;-75
2022/12/16 03:06:03;;;;;;;61.00;30.20;;;;;;;-4.25;80.00;100287.83;103204;1328;37286;-75
2022/12/16 03:08:39;;;;;;;63.80;31.60;;;;;;;-4.27;80.08;100277.21;103203;1326;36878;-74
2022/12/16 03:11:13;;;;;;;61.90;31.60;;;;;;;-4.26;80.13;100275.38;103186;1326;37771;-74
2022/12/16 03:13:54;;;;;;;68.30;32.30;;;;;;;-4.25;79.98;100275.56;103221;1328;36182;-74
2022/12/16 03:16:30;;;;;;;65.30;31.50;;;;;;;-4.28;80.07;100279.92;103215;1328;37148;-75
2022/12/16 03:19:06;;;;;;;60.80;30.80;;;;;;;-4.27;80.15;100279.61;103289;1327;37553;-73
2022/12/16 03:21:45;;;;;;;62.50;30.00;;;;;;;-4.30;79.91;100274.45;103213;1326;36252;-73
2022/12/16 03:24:19;;;;;;;60.90;30.30;;;;;;;-4.32;79.68;100270.15;103167;1324;36317;-73
2022/12/16 03:26:56;;;;;;;62.30;31.40;;;;;;;-4.33;79.97;100276.94;103185;1326;37357;-73
2022/12/16 03:29:33;;;;;;;60.90;30.80;;;;;;;-4.35;79.84;100276.38;103260;1326;37377;-75
2022/12/16 03:32:10;;;;;;;62.70;32.10;;;;;;;-4.40;79.81;100274.92;103182;1325;37546;-75
2022/12/16 03:34:46;;;;;;;59.40;29.40;;;;;;;-4.43;79.94;100274.69;103267;1327;37156;-74
2022/12/16 03:37:20;;;;;;;61.30;30.00;;;;;;;-4.43;80.11;100267.73;103198;1315;37265;-75
2022/12/16 03:39:56;;;;;;;57.80;30.20;;;;;;;-4.40;80.13;100261.46;103136;1326;37121;-74
2022/12/16 03:42:29;;;;;;;64.20;31.30;;;;;;;-4.36;80.12;100259.16;103188;1326;38335;-75
2022/12/16 03:45:03;;;;;;;64.10;31.40;;;;;;;-4.34;80.17;100252.23;103194;1314;37394;-74
2022/12/16 03:47:37;;;;;;;64.00;31.90;;;;;;;-4.33;80.14;100244.76;103195;1329;37243;-74
2022/12/16 03:50:12;;;;;;;60.50;31.60;;;;;;;-4.35;80.02;100239.25;103118;1328;173356;-76
2022/12/16 03:52:53;;;;;;;61.40;30.80;;;;;;;-4.35;80.13;100234.66;103199;1324;37358;-75
2022/12/16 03:55:27;;;;;;;59.50;30.20;;;;;;;-4.36;79.98;100229.02;103200;1326;37179;-74
2022/12/16 03:58:01;;;;;;;60.20;30.30;;;;;;;-4.37;80.02;100227.30;103203;1326;37252;-74
2022/12/16 04:00:35;;;;;;;58.20;29.70;;;;;;;-4.35;80.15;100228.02;103171;1328;37206;-75
2022/12/16 04:03:09;;;;;;;59.60;30.20;;;;;;;-4.33;80.17;100225.35;103178;1328;37220;-75
2022/12/16 04:05:45;;;;;;;60.50;29.00;;;;;;;-4.34;80.05;100222.08;103226;1328;37489;-73
2022/12/16 04:08:19;;;;;;;60.90;30.30;;;;;;;-4.34;80.19;100223.60;103236;1328;37355;-73
2022/12/16 04:25:18;;;;;;;61.80;31.50;;;;;;;-4.31;79.94;100224.86;103204;1328;37338;-75
2022/12/16 04:27:53;;;;;;;60.20;30.10;;;;;;;-4.30;79.87;100231.17;103177;1325;37115;-75
2022/12/16 04:30:27;;;;;;;59.80;30.00;;;;;;;-4.27;80.10;100232.95;103189;1312;37496;-72
